Time;durP1;ratioP1;P1;durP2;ratioP2;P2;SDS_P1;SDS_P2;PMS_P1;PMS_P2;Temp;Humidity;BMP_temperature;BMP_pressure;BME280_temperature;BME280_humidity;BME280_pressure;Samples;Min_cycle;Max_cycle;Signal;HPM_P1;HPM_P2
2022/11/14 00:00:02;;;;;;;86.37;43.47;;;;;;;6.90;92.15;100057.83;2221954;80;21031;-83
2022/11/14 00:03:03;;;;;;;85.10;41.83;;;;;;;6.85;91.94;100051.55;2221980;80;20948;-83
2022/11/14 00:06:03;;;;;;;84.73;43.40;;;;;;;6.84;91.89;100053.66;2221853;80;20987;-82
2022/11/14 00:09:04;;;;;;;87.40;45.17;;;;;;;6.86;92.03;100042.94;2221427;80;21015;-83
2022/11/14 00:12:04;;;;;;;85.57;44.10;;;;;;;6.87;92.03;100034.73;2221860;80;20956;-83
2022/11/14 00:15:04;;;;;;;84.50;43.87;;;;;;;6.86;92.07;100036.45;2221923;80;20956;-83
2022/11/14 00:18:05;;;;;;;77.40;42.53;;;;;;;6.84;92.10;100038.09;2221675;80;21014;-83
2022/11/14 00:21:05;;;;;;;82.43;44.13;;;;;;;6.83;92.03;100035.02;2221814;80;20948;-82
2022/11/14 00:24:06;;;;;;;83.63;44.00;;;;;;;6.81;92.02;100043.14;2221907;80;21028;-83
2022/11/14 00:27:06;;;;;;;80.33;41.43;;;;;;;6.83;92.45;100042.80;2221650;80;20991;-83
2022/11/14 00:30:06;;;;;;;81.50;43.33;;;;;;;6.82;92.16;100046.63;2221601;80;20924;-83
2022/11/14 00:33:07;;;;;;;83.57;40.83;;;;;;;6.82;92.18;100050.10;2221748;80;21015;-83
2022/11/14 00:36:07;;;;;;;89.93;45.47;;;;;;;6.83;92.34;100047.10;2221693;80;21308;-83
2022/11/14 00:39:07;;;;;;;86.80;44.33;;;;;;;6.79;92.84;100039.99;2221749;80;20960;-82
2022/11/14 00:42:08;;;;;;;88.97;45.30;;;;;;;6.76;92.59;100043.34;2221479;80;21000;-83
2022/11/14 00:45:08;;;;;;;84.00;43.97;;;;;;;6.78;92.86;100040.81;2221673;80;20951;-84
2022/11/14 00:48:09;;;;;;;76.17;41.77;;;;;;;6.75;92.97;100044.56;2221126;80;21019;-84
2022/11/14 00:51:09;;;;;;;77.93;42.53;;;;;;;6.67;92.59;100034.72;2221745;80;20948;-83
2022/11/14 00:54:10;;;;;;;81.40;41.87;;;;;;;6.64;92.71;100033.69;2221748;80;21000;-82
2022/11/14 00:57:10;;;;;;;73.37;39.33;;;;;;;6.58;92.78;100043.38;2221479;80;20984;-83
2022/11/14 01:00:10;;;;;;;77.63;41.03;;;;;;;6.56;92.83;100045.02;2221494;80;20941;-83
2022/11/14 01:03:11;;;;;;;73.37;40.37;;;;;;;6.59;93.06;100042.56;2221671;80;20964;-82
2022/11/14 01:06:13;;;;;;;77.57;41.00;;;;;;;6.59;92.88;100034.77;2221567;80;21379;-83
2022/11/14 01:09:11;;;;;;;72.53;40.57;;;;;;;6.60;93.15;100035.66;2221618;80;20952;-83
2022/11/14 01:12:12;;;;;;;72.00;38.30;;;;;;;6.56;93.07;100039.83;2221629;80;20987;-84
2022/11/14 01:15:12;;;;;;;103.23;55.07;;;;;;;6.56;93.28;100033.34;2222049;80;21339;-82
2022/11/14 01:18:13;;;;;;;70.73;39.07;;;;;;;6.60;93.88;100035.66;2221140;80;21106;-83
2022/11/14 01:21:13;;;;;;;66.80;37.07;;;;;;;6.59;93.04;100033.89;2221600;80;20944;-82
2022/11/14 01:24:14;;;;;;;66.90;37.07;;;;;;;6.57;92.96;100024.73;2221539;80;21296;-82
2022/11/14 01:27:14;;;;;;;69.20;37.97;;;;;;;6.57;92.88;100013.47;2221253;80;21067;-83
2022/11/14 01:30:14;;;;;;;73.60;39.90;;;;;;;6.58;93.08;100015.25;2221572;80;20905;-83
2022/11/14 01:33:15;;;;;;;65.50;37.67;;;;;;;6.57;93.31;100006.98;2221889;80;21308;-81
2022/11/14 01:36:15;;;;;;;70.43;36.33;;;;;;;6.54;92.84;100014.63;2221828;80;21008;-83
2022/11/14 01:39:16;;;;;;;64.17;35.33;;;;;;;6.54;93.02;100006.84;2221711;80;20955;-84
2022/11/14 01:42:16;;;;;;;63.23;36.30;;;;;;;6.52;93.06;100002.00;2222050;80;20952;-83
2022/11/14 01:45:16;;;;;;;66.37;38.57;;;;;;;6.50;92.97;99991.95;2221907;80;20991;-83
2022/11/14 01:48:17;;;;;;;60.60;35.43;;;;;;;6.47;93.05;99991.81;2221341;80;21019;-83
2022/11/14 01:51:17;;;;;;;63.87;35.43;;;;;;;6.47;93.03;99994.41;2221639;80;21024;-83
2022/11/14 01:54:18;;;;;;;60.60;35.33;;;;;;;6.46;93.08;99994.82;2221943;80;20908;-83
2022/11/14 01:57:18;;;;;;;61.80;34.40;;;;;;;6.44;93.29;99987.38;2221947;80;20999;-83
2022/11/14 02:00:19;;;;;;;60.30;34.40;;;;;;;6.42;93.07;99995.91;2221919;80;20952;-83
2022/11/14 02:03:19;;;;;;;61.57;35.60;;;;;;;6.36;92.92;99987.02;2221921;80;20952;-82
2022/11/14 02:06:19;;;;;;;55.37;33.73;;;;;;;6.33;93.36;99985.98;2221877;80;21384;-84
2022/11/14 02:09:20;;;;;;;61.47;32.43;;;;;;;6.31;93.13;99979.44;2221991;80;20940;-83
2022/11/14 02:12:20;;;;;;;60.00;34.20;;;;;;;6.33;93.12;99970.44;2221837;80;21008;-83
2022/11/14 02:15:20;;;;;;;54.60;31.90;;;;;;;6.36;93.25;99970.16;2221930;80;20924;-83
2022/11/14 02:18:21;;;;;;;59.87;34.60;;;;;;;6.38;93.11;99975.02;2222619;80;20984;-82
2022/11/14 02:21:21;;;;;;;54.37;31.17;;;;;;;6.45;93.14;99970.11;2222048;80;20920;-83
2022/11/14 02:24:22;;;;;;;61.10;31.87;;;;;;;6.47;92.98;99969.36;2221598;80;21059;-83
2022/11/14 02:27:22;;;;;;;59.07;34.17;;;;;;;6.45;92.62;99970.11;2221932;80;20920;-82
2022/11/14 02:30:23;;;;;;;56.40;31.77;;;;;;;6.45;92.82;99970.11;2221977;80;21358;-83
2022/11/14 02:33:23;;;;;;;54.00;31.50;;;;;;;6.46;92.73;99968.88;2221445;80;20971;-79
2022/11/14 02:36:23;;;;;;;55.17;31.60;;;;;;;6.43;92.47;99962.25;2222551;80;20955;-83
2022/11/14 02:39:24;;;;;;;56.33;31.50;;;;;;;6.43;92.69;99961.37;2222181;80;20948;-83
2022/11/14 02:42:24;;;;;;;49.13;28.77;;;;;;;6.41;92.54;99965.59;2221819;80;21294;-82
2022/11/14 02:45:25;;;;;;;54.77;31.27;;;;;;;6.39;92.38;99975.49;2221884;80;20997;-82
2022/11/14 02:48:25;;;;;;;51.53;31.47;;;;;;;6.44;92.57;99961.84;2213410;80;21039;-83
2022/11/14 02:51:25;;;;;;;49.67;30.70;;;;;;;6.42;92.09;99964.38;2211919;81;20975;-82
2022/11/14 02:54:26;;;;;;;348.63;43.67;;;;;;;6.37;92.08;99967.16;2211760;81;21318;-82
2022/11/14 02:57:26;;;;;;;58.27;30.50;;;;;;;6.37;92.22;99968.05;2211475;81;21395;-83
2022/11/14 03:00:27;;;;;;;48.97;30.83;;;;;;;6.39;91.93;99958.64;2211463;81;20933;-83
2022/11/14 03:03:27;;;;;;;50.17;29.77;;;;;;;6.36;92.04;99954.61;2211139;81;20961;-83
2022/11/14 03:06:27;;;;;;;49.43;31.63;;;;;;;6.34;92.02;99961.42;2211412;81;20961;-83
2022/11/14 03:09:28;;;;;;;51.47;30.50;;;;;;;6.32;91.98;99965.66;2211500;81;20937;-83
2022/11/14 03:12:28;;;;;;;48.23;29.90;;;;;;;6.33;92.05;99963.54;2211382;81;20996;-83
2022/11/14 03:15:29;;;;;;;54.30;32.50;;;;;;;6.27;91.95;99952.00;2211505;81;20952;-85
2022/11/14 03:18:29;;;;;;;62.97;30.00;;;;;;;6.61;100.00;99959.61;2210929;81;21028;-84
2022/11/14 03:21:30;;;;;;;57.37;32.33;;;;;;;10.42;100.00;99940.34;2211733;81;20916;-83
2022/11/14 03:24:30;;;;;;;53.10;32.10;;;;;;;13.03;100.00;99937.31;2211678;81;20956;-84
2022/11/14 03:27:30;;;;;;;44.77;25.87;;;;;;;14.66;100.00;99927.78;2211647;81;21012;-84
2022/11/14 03:30:31;;;;;;;44.60;28.30;;;;;;;15.49;92.70;99926.08;2211831;81;20975;-83
2022/11/14 03:33:31;;;;;;;44.23;27.87;;;;;;;16.15;94.14;99918.33;2211434;81;20972;-83
2022/11/14 03:36:32;;;;;;;35.65;24.10;;;;;;;16.63;84.18;99911.16;2211888;81;20943;-82
2022/11/14 03:39:32;;;;;;;40.73;27.95;;;;;;;17.09;76.71;99916.61;2212067;81;20959;-83
2022/11/14 03:42:33;;;;;;;42.40;27.55;;;;;;;17.65;80.86;99918.05;2211939;81;20984;-82
2022/11/14 03:45:33;;;;;;;44.25;28.83;;;;;;;17.35;73.80;99913.62;2212093;81;20976;-82
2022/11/14 03:48:33;;;;;;;41.98;28.87;;;;;;;17.61;73.44;99915.41;2211790;80;21004;-82
2022/11/14 03:51:34;;;;;;;42.03;26.90;;;;;;;17.99;73.34;99911.02;2211928;81;20952;-82
2022/11/14 03:54:34;;;;;;;38.02;26.40;;;;;;;18.17;69.65;99902.63;2212192;81;20955;-82
2022/11/14 03:57:35;;;;;;;61.60;27.37;;;;;;;18.40;61.97;99898.20;2212573;81;20947;-83
2022/11/14 04:00:35;;;;;;;34.10;23.00;;;;;;;18.02;66.56;99904.41;2212369;81;20932;-84
2022/11/14 04:03:35;;;;;;;37.90;26.62;;;;;;;18.40;59.35;99895.11;2212038;81;20979;-82
2022/11/14 04:06:36;;;;;;;43.23;27.55;;;;;;;18.45;63.85;99889.36;2212293;81;21055;-82
2022/11/14 04:09:36;;;;;;;43.40;28.45;;;;;;;18.34;63.39;99885.00;2212284;81;20924;-82
2022/11/14 04:12:37;;;;;;;38.70;27.17;;;;;;;18.56;63.72;99883.16;2211832;81;21339;-82
2022/11/14 04:15:37;;;;;;;41.10;24.32;;;;;;;18.62;62.20;99877.88;2211550;81;20995;-82
2022/11/14 04:18:38;;;;;;;43.15;28.17;;;;;;;18.87;57.78;99879.52;2211225;81;21020;-82
2022/11/14 04:21:38;;;;;;;64.90;28.10;;;;;;;18.44;57.37;99874.39;2211742;81;20955;-84
2022/11/14 04:24:38;;;;;;;42.48;28.35;;;;;;;18.54;58.08;99870.38;2211433;81;20968;-83
2022/11/14 04:27:39;;;;;;;39.80;28.57;;;;;;;18.54;57.56;99865.09;2211631;81;20983;-83
2022/11/14 04:30:39;;;;;;;46.18;29.32;;;;;;;18.78;57.43;99861.92;2212113;81;20995;-83
2022/11/14 04:33:40;;;;;;;42.25;25.12;;;;;;;18.99;56.38;99866.22;2211894;81;21280;-82
2022/11/14 04:36:40;;;;;;;43.58;28.87;;;;;;;19.13;55.93;99874.11;2211991;81;20937;-83
2022/11/14 04:39:40;;;;;;;45.28;26.97;;;;;;;19.58;53.47;99870.27;2212143;81;20960;-84
2022/11/14 04:42:41;;;;;;;43.33;30.45;;;;;;;19.49;51.28;99867.66;2211065;81;20952;-82
2022/11/14 04:45:41;;;;;;;44.40;30.92;;;;;;;17.90;48.02;99874.49;2210725;81;20986;-81
2022/11/14 04:48:42;;;;;;;37.98;27.15;;;;;;;14.77;49.96;99882.38;2204035;80;21392;-82
2022/11/14 04:51:42;;;;;;;35.95;25.92;;;;;;;12.52;53.96;99885.62;2202035;81;20912;-83
2022/11/14 04:54:42;;;;;;;39.20;27.02;;;;;;;11.10;58.41;99888.73;2202136;81;20973;-84
2022/11/14 04:57:43;;;;;;;139.65;33.00;;;;;;;9.95;60.04;99895.37;2201864;81;20941;-80
2022/11/14 05:00:43;;;;;;;43.48;27.15;;;;;;;9.26;62.35;99900.05;2201570;81;20928;-84
2022/11/14 05:03:44;;;;;;;56.70;28.73;;;;;;;8.77;64.42;99900.95;2201277;81;21328;-83
2022/11/14 05:06:44;;;;;;;43.93;29.67;;;;;;;8.41;66.94;99898.28;2201172;81;21002;-83
2022/11/14 05:09:44;;;;;;;47.30;31.00;;;;;;;8.00;68.84;99901.47;2201497;81;20965;-84
2022/11/14 05:12:45;;;;;;;52.60;31.83;;;;;;;7.61;69.65;99902.94;2201501;81;20961;-83
2022/11/14 05:15:48;;;;;;;62.40;33.23;;;;;;;7.41;70.83;99899.95;2202344;81;20984;-84
2022/11/14 05:18:49;;;;;;;50.53;31.43;;;;;;;7.24;72.04;99894.47;2201918;81;20987;-83
2022/11/14 05:21:49;;;;;;;51.17;31.50;;;;;;;7.12;72.86;99893.95;2201750;81;20995;-84
2022/11/14 05:24:50;;;;;;;374.37;80.47;;;;;;;7.01;74.68;99885.30;2202306;81;20996;-84
2022/11/14 05:27:50;;;;;;;145.13;37.70;;;;;;;6.81;77.41;99891.31;2204382;81;20901;-81
2022/11/14 05:30:50;;;;;;;66.20;34.23;;;;;;;6.65;76.01;99879.39;2202279;81;20988;-83
2022/11/14 05:33:51;;;;;;;56.50;33.63;;;;;;;6.53;77.58;99894.83;2202895;81;20988;-83
2022/11/14 05:36:51;;;;;;;64.17;35.17;;;;;;;6.35;78.12;99893.19;2202185;81;20964;-83
2022/11/14 05:39:52;;;;;;;98.07;57.63;;;;;;;6.25;79.08;99893.59;2201681;81;20909;-83
2022/11/14 05:42:52;;;;;;;85.70;43.80;;;;;;;6.19;80.28;99887.23;2202323;81;21676;-83
2022/11/14 05:45:52;;;;;;;75.00;34.73;;;;;;;6.12;80.93;99889.95;2201805;81;20956;-82
2022/11/14 05:48:53;;;;;;;60.93;35.90;;;;;;;6.04;81.09;99893.86;2200640;81;21048;-84
2022/11/14 05:51:53;;;;;;;79.17;41.77;;;;;;;5.95;82.11;99900.80;2200555;81;21684;-86
2022/11/14 05:54:54;;;;;;;64.60;36.47;;;;;;;5.92;83.46;99901.07;2199522;81;20956;-84
2022/11/14 05:57:54;;;;;;;66.57;37.97;;;;;;;5.89;86.24;99897.93;2198648;81;20932;-84
2022/11/14 06:00:54;;;;;;;63.00;35.77;;;;;;;5.81;83.60;99900.53;2198375;81;20969;-84
2022/11/14 06:03:55;;;;;;;80.53;35.70;;;;;;;5.80;84.45;99905.64;2199353;81;20930;-81
2022/11/14 06:06:56;;;;;;;98.13;40.07;;;;;;;5.86;84.63;99902.93;2199875;81;20937;-80
2022/11/14 06:09:57;;;;;;;86.30;35.83;;;;;;;5.95;84.42;99908.98;2200413;81;20944;-82
2022/11/14 06:12:57;;;;;;;87.60;36.73;;;;;;;6.04;84.50;99918.48;2199989;81;20925;-80
2022/11/14 06:15:58;;;;;;;67.83;34.70;;;;;;;6.04;84.87;99909.42;2200888;81;20959;-79
2022/11/14 06:18:58;;;;;;;71.33;35.60;;;;;;;6.04;85.01;99902.94;2200985;81;20977;-80
2022/11/14 06:21:58;;;;;;;62.73;34.37;;;;;;;6.03;85.04;99902.45;2201098;81;20987;-80
2022/11/14 06:24:59;;;;;;;59.63;33.33;;;;;;;5.98;85.78;99897.47;2200774;81;20972;-80
2022/11/14 06:27:59;;;;;;;67.80;36.07;;;;;;;5.93;85.48;99897.66;2200984;81;20945;-80
2022/11/14 06:31:00;;;;;;;90.37;36.33;;;;;;;5.94;86.15;99894.25;2199926;81;20957;-81
2022/11/14 06:34:00;;;;;;;58.53;33.57;;;;;;;5.98;86.31;99903.54;2199630;81;21308;-82
2022/11/14 06:37:01;;;;;;;64.27;35.43;;;;;;;5.99;87.05;99905.72;2199072;81;20901;-82
2022/11/14 06:40:01;;;;;;;65.97;37.53;;;;;;;5.95;86.88;99902.10;2199536;81;20931;-81
2022/11/14 06:43:01;;;;;;;71.57;37.57;;;;;;;5.92;87.07;99899.37;2199449;81;20961;-80
2022/11/14 06:46:02;;;;;;;77.20;42.47;;;;;;;5.91;87.68;99905.37;2199106;81;20949;-81
2022/11/14 06:49:02;;;;;;;74.70;40.53;;;;;;;5.91;87.41;99901.48;2204754;81;21541;-81
2022/11/14 06:52:03;;;;;;;71.10;38.27;;;;;;;5.94;87.32;99898.14;2208836;81;20929;-81
2022/11/14 06:55:03;;;;;;;109.00;41.83;;;;;;;5.93;87.24;99898.95;2208271;81;20944;-81
2022/11/14 06:58:03;;;;;;;76.77;41.60;;;;;;;5.97;87.54;99891.80;2207560;81;20904;-81
2022/11/14 07:01:04;;;;;;;82.80;41.13;;;;;;;5.99;88.26;99883.28;2208529;81;20925;-80
2022/11/14 07:04:04;;;;;;;73.83;39.13;;;;;;;6.00;87.75;99893.24;2208315;81;20944;-80
2022/11/14 07:07:05;;;;;;;70.17;39.67;;;;;;;5.99;88.29;99887.58;2208278;81;21016;-81
2022/11/14 07:10:05;;;;;;;76.00;39.90;;;;;;;6.02;88.05;99887.72;2208369;81;20932;-80
2022/11/14 07:13:05;;;;;;;74.90;39.43;;;;;;;6.08;88.05;99894.52;2208823;81;20909;-81
2022/11/14 07:16:06;;;;;;;84.87;41.77;;;;;;;6.13;88.00;99890.44;2208916;81;20949;-80
2022/11/14 07:19:08;;;;;;;85.23;40.73;;;;;;;6.15;88.23;99891.39;2208697;81;20936;-79
2022/11/14 07:22:07;;;;;;;90.53;41.53;;;;;;;6.16;88.05;99890.98;2209369;81;21308;-81
2022/11/14 07:25:07;;;;;;;93.43;42.77;;;;;;;6.16;88.52;99881.50;2209078;81;21004;-79
2022/11/14 07:28:07;;;;;;;82.13;40.73;;;;;;;6.20;88.28;99895.08;2209225;81;20996;-81
2022/11/14 07:31:08;;;;;;;160.23;44.83;;;;;;;6.25;88.38;99891.41;2208567;81;20932;-79
2022/11/14 07:34:10;;;;;;;90.07;42.67;;;;;;;6.23;88.30;99888.74;2207669;81;20933;-79
2022/11/14 07:37:09;;;;;;;74.43;41.80;;;;;;;6.19;88.28;99890.72;2206948;81;20988;-78
2022/11/14 07:40:09;;;;;;;76.97;42.13;;;;;;;6.16;88.40;99888.39;2207859;81;21320;-79
2022/11/14 07:43:10;;;;;;;78.70;43.87;;;;;;;6.14;88.79;99887.02;2208513;81;20929;-80
2022/11/14 07:46:10;;;;;;;91.03;44.97;;;;;;;6.17;88.83;99887.16;2207667;81;21425;-80
2022/11/14 07:49:10;;;;;;;74.27;39.63;;;;;;;6.21;88.96;99886.48;2207691;81;21035;-79
2022/11/14 07:52:11;;;;;;;1498.47;145.50;;;;;;;6.23;88.94;99875.77;2208627;81;20941;-79
2022/11/14 07:55:11;;;;;;;106.13;46.43;;;;;;;6.24;89.78;99864.59;2209038;81;20962;-79
2022/11/14 07:58:12;;;;;;;92.97;49.40;;;;;;;6.27;89.24;99866.02;2208092;81;21347;-79
2022/11/14 08:01:12;;;;;;;96.27;42.83;;;;;;;6.32;89.57;99872.71;2208228;81;20973;-79
2022/11/14 08:04:12;;;;;;;78.87;42.00;;;;;;;6.29;89.19;99872.16;2207625;81;20933;-79
2022/11/14 08:07:13;;;;;;;79.20;40.43;;;;;;;6.32;89.27;99867.11;2207361;81;20960;-79
2022/11/14 08:10:14;;;;;;;83.67;44.53;;;;;;;6.36;89.21;99875.51;2207481;81;20959;-80
2022/11/14 08:13:14;;;;;;;74.27;41.10;;;;;;;6.37;89.10;99868.20;2207294;81;20960;-80
2022/11/14 08:16:14;;;;;;;83.23;44.20;;;;;;;6.43;89.12;99865.00;2206667;81;21796;-80
2022/11/14 08:19:15;;;;;;;79.33;43.10;;;;;;;6.47;89.01;99860.83;2207055;81;21003;-79
2022/11/14 08:22:15;;;;;;;81.57;40.07;;;;;;;6.57;89.09;99860.01;2206334;81;20940;-79
2022/11/14 08:25:15;;;;;;;68.40;39.87;;;;;;;6.67;88.74;99852.21;2207025;81;20999;-80
2022/11/14 08:28:16;;;;;;;74.87;40.90;;;;;;;6.76;88.54;99844.82;2207696;81;21026;-79
2022/11/14 08:31:16;;;;;;;73.20;41.40;;;;;;;6.77;88.21;99845.30;2208209;81;20929;-80
2022/11/14 08:34:16;;;;;;;73.20;39.93;;;;;;;6.78;88.05;99848.37;2207724;81;21001;-79
2022/11/14 08:37:17;;;;;;;81.17;43.80;;;;;;;6.83;87.96;99840.37;2208286;81;20929;-80
2022/11/14 08:40:17;;;;;;;71.30;40.70;;;;;;;6.92;87.96;99830.38;2207595;81;20963;-80
2022/11/14 08:43:18;;;;;;;75.03;39.73;;;;;;;7.03;87.71;99833.03;2207582;81;20968;-78
2022/11/14 08:46:18;;;;;;;97.00;41.87;;;;;;;7.01;87.58;99829.49;2208463;81;21004;-80
2022/11/14 08:49:19;;;;;;;98.50;41.20;;;;;;;7.09;87.66;99820.72;2213241;80;21403;-80
2022/11/14 08:52:19;;;;;;;72.90;39.23;;;;;;;7.13;87.49;99828.22;2217278;80;20960;-79
2022/11/14 08:55:19;;;;;;;69.37;37.83;;;;;;;7.23;87.38;99832.55;2218045;80;20940;-81
2022/11/14 08:58:20;;;;;;;198.17;46.13;;;;;;;7.27;86.85;99829.26;2218137;80;20924;-82
2022/11/14 09:01:23;;;;;;;71.57;39.83;;;;;;;7.27;86.85;99829.26;2218524;80;20928;-83
2022/11/14 09:04:24;;;;;;;69.93;40.00;;;;;;;7.25;86.66;99833.91;2218810;80;21577;-81
2022/11/14 09:07:24;;;;;;;80.60;40.67;;;;;;;7.25;86.62;99824.83;2218715;80;21032;-81
2022/11/14 09:10:25;;;;;;;68.37;39.67;;;;;;;7.34;86.70;99830.39;2218720;80;20928;-83
2022/11/14 09:13:26;;;;;;;76.50;39.87;;;;;;;7.45;86.45;99833.41;2218910;80;20931;-82
2022/11/14 09:16:25;;;;;;;110.13;40.87;;;;;;;7.48;86.16;99830.53;2218900;80;20993;-81
2022/11/14 09:19:26;;;;;;;74.43;40.43;;;;;;;7.45;86.37;99823.91;2218621;80;20968;-82
2022/11/14 09:22:26;;;;;;;113.53;54.33;;;;;;;7.46;86.01;99828.28;2219530;80;20967;-81
2022/11/14 09:25:27;;;;;;;71.87;41.80;;;;;;;7.43;85.93;99833.36;2220153;80;20983;-81
2022/11/14 09:28:27;;;;;;;66.50;39.90;;;;;;;7.38;86.21;99826.20;2219530;80;20936;-82
2022/11/14 09:31:28;;;;;;;76.60;37.77;;;;;;;7.27;86.34;99813.67;2218824;80;21347;-81
2022/11/14 09:34:28;;;;;;;69.23;40.13;;;;;;;7.22;86.59;99817.80;2219185;80;20904;-83
2022/11/14 09:37:28;;;;;;;71.90;40.30;;;;;;;7.21;86.43;99822.93;2219311;80;20928;-82
2022/11/14 09:40:29;;;;;;;80.67;40.00;;;;;;;7.18;86.56;99822.80;2219494;80;20912;-80
2022/11/14 09:43:29;;;;;;;74.47;41.30;;;;;;;7.15;86.56;99818.78;2220243;80;20985;-81
2022/11/14 09:46:29;;;;;;;64.97;38.83;;;;;;;7.16;86.75;99816.66;2219407;80;20959;-80
2022/11/14 09:49:30;;;;;;;70.77;41.80;;;;;;;7.13;87.25;99815.24;2219096;80;21419;-80
2022/11/14 09:52:30;;;;;;;76.83;41.27;;;;;;;7.02;87.07;99814.39;2218284;80;20943;-82
2022/11/14 09:55:31;;;;;;;60.63;35.10;;;;;;;6.97;87.70;99815.91;2218959;80;20932;-81
2022/11/14 09:58:31;;;;;;;78.70;42.67;;;;;;;7.06;88.08;99814.52;2219407;80;20940;-81
2022/11/14 10:01:32;;;;;;;78.70;41.43;;;;;;;7.11;87.78;99811.70;2218791;80;20948;-81
2022/11/14 10:04:32;;;;;;;71.80;45.60;;;;;;;7.14;87.62;99807.92;2219059;80;20932;-81
2022/11/14 10:07:32;;;;;;;82.43;39.43;;;;;;;7.24;87.67;99802.28;2219742;80;20991;-82
2022/11/14 10:10:33;;;;;;;69.13;41.07;;;;;;;7.37;87.52;99788.95;2219500;80;20932;-81
2022/11/14 10:13:33;;;;;;;65.23;39.57;;;;;;;7.46;87.05;99798.41;2218406;80;20984;-82
2022/11/14 10:16:33;;;;;;;67.70;38.53;;;;;;;7.49;86.55;99787.25;2218489;80;20976;-82
2022/11/14 10:19:34;;;;;;;63.97;38.17;;;;;;;7.53;86.47;99784.83;2218756;80;21023;-82
2022/11/14 10:22:34;;;;;;;61.80;38.10;;;;;;;7.61;86.37;99784.71;2218062;80;21825;-82
2022/11/14 10:25:35;;;;;;;81.50;42.40;;;;;;;7.68;86.13;99785.83;2217841;80;20952;-82
2022/11/14 10:28:35;;;;;;;74.10;41.90;;;;;;;7.77;86.16;99784.88;2218246;80;20959;-81
2022/11/14 10:31:38;;;;;;;84.43;39.83;;;;;;;7.79;85.32;99783.22;2217386;80;21648;-82
2022/11/14 10:34:40;;;;;;;187.97;47.20;;;;;;;7.79;85.69;99780.63;2216630;80;20916;-81
2022/11/14 10:37:39;;;;;;;107.40;45.73;;;;;;;7.81;85.33;99776.81;2217929;80;20921;-79
2022/11/14 10:40:39;;;;;;;70.77;40.83;;;;;;;7.77;85.30;99781.39;2217699;80;21705;-82
2022/11/14 10:43:40;;;;;;;77.67;43.10;;;;;;;7.74;85.19;99770.88;2218505;80;20928;-82
2022/11/14 10:46:40;;;;;;;78.07;42.83;;;;;;;7.61;85.37;99761.33;2217887;80;20964;-81
2022/11/14 10:49:41;;;;;;;113.57;52.43;;;;;;;7.53;85.91;99771.84;2213506;80;20992;-82
2022/11/14 10:52:41;;;;;;;84.17;46.70;;;;;;;7.59;86.18;99766.88;2208420;81;21190;-81
2022/11/14 10:55:41;;;;;;;103.27;45.93;;;;;;;7.72;86.09;99764.74;2208037;81;20905;-82
2022/11/14 10:58:42;;;;;;;87.33;46.33;;;;;;;7.80;85.99;99760.34;2208087;81;20941;-81
2022/11/14 11:01:42;;;;;;;72.43;40.70;;;;;;;7.94;85.89;99760.84;2207626;81;20961;-82
2022/11/14 11:04:43;;;;;;;78.20;45.70;;;;;;;8.01;85.73;99746.36;2207923;81;20968;-82
2022/11/14 11:14:21;;;;;;;93.97;44.97;;;;;;;8.53;84.81;99736.09;2208180;81;21705;-82
2022/11/14 11:17:21;;;;;;;102.47;42.73;;;;;;;8.47;83.81;99738.48;2209005;81;20960;-82
2022/11/14 11:20:21;;;;;;;80.67;40.53;;;;;;;8.40;83.62;99742.59;2209772;81;20972;-80
2022/11/14 11:23:22;;;;;;;76.80;41.63;;;;;;;8.41;83.76;99740.88;2209997;81;20997;-82
2022/11/14 11:26:22;;;;;;;106.93;44.23;;;;;;;8.26;83.26;99742.08;2209188;81;20955;-82
2022/11/14 11:29:23;;;;;;;81.70;41.73;;;;;;;8.22;83.94;99735.42;2208768;81;20905;-83
2022/11/14 11:32:23;;;;;;;121.20;44.33;;;;;;;8.27;83.91;99730.84;2209596;81;20936;-82
2022/11/14 11:35:23;;;;;;;75.77;41.00;;;;;;;8.29;83.82;99727.88;2210435;81;21419;-81
2022/11/14 11:38:24;;;;;;;174.27;49.33;;;;;;;8.41;84.00;99720.95;2209045;81;21004;-82
2022/11/14 11:41:24;;;;;;;89.20;46.23;;;;;;;8.45;83.66;99720.22;2208057;81;21387;-82
2022/11/14 11:44:25;;;;;;;138.40;43.93;;;;;;;8.44;83.42;99709.34;2208734;81;21116;-82
2022/11/14 11:47:25;;;;;;;77.93;43.33;;;;;;;8.46;83.29;99701.59;2208314;81;21044;-81
2022/11/14 11:50:26;;;;;;;75.50;43.97;;;;;;;8.36;83.00;99701.70;2208102;80;21392;-81
2022/11/14 11:53:28;;;;;;;84.40;42.93;;;;;;;8.19;83.33;99694.58;2208583;81;20944;-79
2022/11/14 11:56:28;;;;;;;79.40;43.90;;;;;;;8.14;83.66;99696.14;2187302;81;20944;-80
2022/11/14 11:59:32;;;;;;;75.83;42.00;;;;;;;8.09;83.78;99697.69;2208325;81;20960;-81
2022/11/14 12:02:29;;;;;;;287.80;53.83;;;;;;;8.02;84.08;99692.22;2208911;81;20963;-78
2022/11/14 12:05:29;;;;;;;85.47;42.83;;;;;;;8.05;84.36;99693.22;2208250;81;20967;-82
2022/11/14 12:08:30;;;;;;;77.40;44.10;;;;;;;8.09;84.38;99695.09;2207654;81;21339;-83
2022/11/14 12:11:30;;;;;;;75.87;42.53;;;;;;;8.08;84.31;99696.34;2207444;81;20929;-82
2022/11/14 12:14:31;;;;;;;86.23;46.57;;;;;;;7.94;84.43;99690.23;2207098;81;20940;-82
2022/11/14 12:17:31;;;;;;;84.20;44.23;;;;;;;7.87;85.28;99692.56;2207775;81;20956;-81
2022/11/14 12:20:31;;;;;;;78.33;42.97;;;;;;;7.86;85.46;99690.38;2207689;81;20984;-83
2022/11/14 12:23:32;;;;;;;94.50;49.50;;;;;;;7.79;85.83;99675.77;2208373;81;21344;-84
2022/11/14 12:26:32;;;;;;;87.80;45.27;;;;;;;7.81;85.85;99679.34;2207828;81;21004;-82
2022/11/14 12:29:33;;;;;;;95.67;45.97;;;;;;;7.88;86.01;99673.54;2208079;81;20953;-81
2022/11/14 12:32:33;;;;;;;82.47;43.07;;;;;;;7.88;85.95;99670.94;2208765;81;21389;-82
2022/11/14 12:35:34;;;;;;;82.53;44.80;;;;;;;7.92;86.03;99672.41;2208150;81;20975;-83
2022/11/14 12:38:34;;;;;;;86.63;41.90;;;;;;;7.96;85.88;99665.59;2209684;81;20968;-81
2022/11/14 12:41:34;;;;;;;86.70;41.80;;;;;;;8.09;86.09;99670.80;2208437;81;21338;-82
2022/11/14 12:44:35;;;;;;;82.90;43.30;;;;;;;8.14;85.51;99668.83;2207829;81;20940;-82
2022/11/14 12:47:35;;;;;;;75.40;41.70;;;;;;;8.14;85.13;99662.33;2208409;81;21031;-83
2022/11/14 12:50:36;;;;;;;78.73;40.03;;;;;;;8.16;85.21;99656.77;2203111;80;21047;-81
2022/11/14 12:53:36;;;;;;;85.87;46.07;;;;;;;8.19;84.87;99659.47;2199436;81;20941;-82
2022/11/14 12:56:37;;;;;;;81.20;43.40;;;;;;;8.18;84.96;99657.70;2198355;81;20968;-81
2022/11/14 12:59:37;;;;;;;94.67;44.27;;;;;;;8.18;84.96;99657.70;2198227;81;21000;-80
2022/11/14 13:02:37;;;;;;;97.03;44.13;;;;;;;8.14;84.84;99663.63;2199058;81;20936;-81
2022/11/14 13:05:40;;;;;;;74.33;42.43;;;;;;;8.10;84.89;99652.66;2199094;81;20953;-81
2022/11/14 13:08:40;;;;;;;82.03;41.07;;;;;;;8.07;84.94;99659.05;2171151;81;20928;-80
2022/11/14 13:21:46;;;;;;;74.77;41.50;;;;;;;7.98;85.06;99634.03;2197829;81;21026;-78
2022/11/14 13:24:46;;;;;;;82.37;42.27;;;;;;;7.90;85.47;99637.67;2197355;81;20921;-79
2022/11/14 13:27:47;;;;;;;73.10;40.77;;;;;;;7.84;85.57;99630.07;2197588;81;21735;-79
2022/11/14 13:30:47;;;;;;;72.77;41.40;;;;;;;7.84;85.75;99627.05;2197623;81;21316;-78
2022/11/14 13:33:48;;;;;;;70.30;38.67;;;;;;;7.82;85.69;99622.64;2197405;81;20909;-79
2022/11/14 13:36:48;;;;;;;143.77;45.47;;;;;;;7.78;85.89;99624.21;2197404;81;20976;-79
2022/11/14 13:39:48;;;;;;;76.50;41.20;;;;;;;7.75;86.23;99629.72;2199891;81;20985;-81
2022/11/14 13:42:49;;;;;;;74.47;41.37;;;;;;;7.72;86.61;99616.61;2198898;81;21328;-82
2022/11/14 13:45:49;;;;;;;74.83;42.27;;;;;;;7.63;86.69;99614.58;2199180;81;20953;-77
2022/11/14 13:48:49;;;;;;;76.97;41.83;;;;;;;7.53;86.96;99601.67;2199459;81;21012;-78
2022/11/14 13:51:50;;;;;;;85.80;47.73;;;;;;;7.47;87.71;99604.05;2207313;81;21638;-80
2022/11/14 13:54:50;;;;;;;80.63;43.07;;;;;;;7.38;87.79;99606.31;2207966;81;20992;-80
2022/11/14 13:57:51;;;;;;;68.93;39.00;;;;;;;7.28;87.67;99599.90;2208395;81;21032;-80
2022/11/14 14:00:51;;;;;;;71.40;39.37;;;;;;;7.24;88.12;99594.12;2208133;81;20975;-81
2022/11/14 14:03:51;;;;;;;71.20;39.23;;;;;;;7.21;88.59;99589.23;2208185;81;20983;-81
2022/11/14 14:06:52;;;;;;;67.80;37.57;;;;;;;7.12;88.81;99591.07;2208347;81;20921;-78
2022/11/14 14:09:52;;;;;;;71.73;39.67;;;;;;;7.08;89.08;99583.11;2206533;81;21689;-77